Time;durP1;ratioP1;P1;durP2;ratioP2;P2;SDS_P1;SDS_P2;PMS_P1;PMS_P2;Temp;Humidity;BMP_temperature;BMP_pressure;BME280_temperature;BME280_humidity;BME280_pressure;Samples;Min_cycle;Max_cycle;Signal;HPM_P1;HPM_P2
2023/05/28 00:01:27;;;;;;;;;14.50;14.50;;;;;20.58;36.53;101668.30;110237;1265;21815;-40
2023/05/28 00:03:54;;;;;;;;;32.00;29.00;;;;;20.51;36.38;101664.92;110254;1265;21482;-40
2023/05/28 00:06:22;;;;;;;;;38.00;34.00;;;;;20.48;36.48;101664.73;110217;1265;20820;-40
2023/05/28 00:08:49;;;;;;;;;27.00;25.00;;;;;20.50;36.30;101664.63;110219;1265;21500;-39
2023/05/28 00:11:17;;;;;;;;;20.00;20.00;;;;;20.48;36.45;101662.02;110183;1265;23159;-42
2023/05/28 00:13:44;;;;;;;;;29.00;23.00;;;;;20.44;36.64;101663.89;110204;1265;22274;-40
2023/05/28 00:16:14;;;;;;;;;26.50;20.00;;;;;20.40;36.94;101660.80;110261;1265;20145;-40
2023/05/28 00:18:41;;;;;;;;;20.00;20.00;;;;;20.38;36.80;101655.33;110216;1265;19222;-39
2023/05/28 00:21:10;;;;;;;;;22.00;20.00;;;;;20.36;36.89;101656.09;110256;1265;22668;-40
2023/05/28 00:23:38;;;;;;;;;17.00;17.00;;;;;20.28;37.17;101658.35;110200;1265;23466;-40
2023/05/28 00:26:05;;;;;;;;;;;;;;;20.17;37.60;101653.41;110260;1266;23059;-40
2023/05/28 00:28:32;;;;;;;;;16.00;16.00;;;;;20.16;37.71;101650.67;110285;1250;18977;-40
2023/05/28 00:31:00;;;;;;;;;22.00;17.00;;;;;20.04;37.62;101643.29;110273;1265;21839;-40
2023/05/28 00:33:27;;;;;;;;;22.00;16.00;;;;;20.09;37.55;101649.39;110295;1249;19226;-39
2023/05/28 00:35:56;;;;;;;;;17.00;17.00;;;;;20.11;37.45;101645.73;110255;1265;22132;-40
2023/05/28 00:38:23;;;;;;;;;26.50;25.00;;;;;20.11;37.48;101646.98;110249;1265;23128;-39
2023/05/28 00:40:54;;;;;;;;;19.00;19.00;;;;;20.06;37.32;101644.91;110173;1265;19957;-40
2023/05/28 00:43:21;;;;;;;;;19.00;19.00;;;;;20.15;37.18;101640.41;110273;1265;21077;-44
2023/05/28 00:45:49;;;;;;;;;23.00;16.00;;;;;20.10;37.09;101633.97;110142;1251;187173;-39
2023/05/28 00:48:16;;;;;;;;;16.00;16.00;;;;;20.13;36.95;101634.82;110295;1265;21176;-40
2023/05/28 00:50:44;;;;;;;;;17.00;16.00;;;;;20.14;36.94;101632.99;110251;1265;20790;-39
2023/05/28 00:53:11;;;;;;;;;16.00;14.00;;;;;20.08;36.94;101634.92;110268;1249;20076;-39
2023/05/28 00:55:39;;;;;;;;;15.50;13.50;;;;;20.11;36.73;101635.56;110261;1252;22401;-40
2023/05/28 00:58:07;;;;;;;;;17.00;15.00;;;;;20.12;36.73;101634.02;110280;1265;20342;-39
2023/05/28 01:00:34;;;;;;;;;13.00;13.00;;;;;20.16;36.60;101633.27;110276;1251;20608;-40
2023/05/28 01:03:02;;;;;;;;;16.00;14.00;;;;;20.17;36.61;101632.92;110276;1265;20046;-40
2023/05/28 01:05:32;;;;;;;;;15.00;15.00;;;;;20.13;36.66;101629.20;110276;1265;22073;-39
2023/05/28 01:08:00;;;;;;;;;17.00;16.00;;;;;20.06;36.70;101625.33;110316;1265;22754;-40
2023/05/28 01:10:27;;;;;;;;;18.00;16.00;;;;;20.08;36.61;101626.95;110287;1265;23526;-39
2023/05/28 01:12:56;;;;;;;;;20.00;17.00;;;;;20.14;36.77;101627.05;110273;1265;20794;-39
2023/05/28 01:15:24;;;;;;;;;14.50;14.50;;;;;20.16;36.66;101624.55;110308;1265;21477;-39
2023/05/28 01:17:52;;;;;;;;;14.00;11.00;;;;;20.13;36.55;101620.25;110280;1265;19098;-39
2023/05/28 01:20:25;;;;;;;;;14.00;13.00;;;;;20.06;36.79;101617.86;110137;1259;23580;-39
2023/05/28 01:22:53;;;;;;;;;16.00;15.00;;;;;19.97;36.69;101618.20;110192;1251;20155;-38
2023/05/28 01:25:20;;;;;;;;;13.00;12.50;;;;;19.85;37.06;101616.15;110186;1265;23592;-39
2023/05/28 01:27:48;;;;;;;;;16.00;15.00;;;;;19.83;36.95;101611.05;110196;1265;21361;-39
2023/05/28 01:30:15;;;;;;;;;16.00;13.00;;;;;19.81;36.90;101614.36;110258;1251;21647;-39
2023/05/28 01:32:43;;;;;;;;;18.00;15.50;;;;;19.82;36.83;101611.46;110227;1265;23417;-39
2023/05/28 01:35:10;;;;;;;;;14.00;13.00;;;;;19.87;36.86;101613.73;110233;1265;23624;-39
2023/05/28 01:37:38;;;;;;;;;16.50;14.50;;;;;19.80;36.89;101617.58;110193;1251;23533;-38
2023/05/28 01:40:05;;;;;;;;;12.50;12.50;;;;;19.72;37.07;101615.16;110167;1251;19982;-40
2023/05/28 01:42:33;;;;;;;;;14.00;13.00;;;;;19.69;37.06;101608.08;110207;1265;23439;-40
2023/05/28 01:45:00;;;;;;;;;18.00;15.00;;;;;19.71;36.88;101609.82;110159;1265;21494;-38
2023/05/28 01:47:28;;;;;;;;;12.00;12.00;;;;;19.64;37.20;101608.58;110243;1265;23099;-38
2023/05/28 01:49:55;;;;;;;;;20.00;16.00;;;;;19.76;37.05;101603.83;110186;1265;23128;-41
2023/05/28 01:52:23;;;;;;;;;15.00;12.00;;;;;19.67;36.89;101605.14;110194;1249;21588;-38
2023/05/28 01:54:50;;;;;;;;;13.00;12.00;;;;;19.68;37.00;101608.73;110215;1265;20526;-40
2023/05/28 01:57:18;;;;;;;;;16.00;15.00;;;;;19.59;36.83;101607.55;110250;1260;20863;-40
2023/05/28 01:59:45;;;;;;;;;13.00;13.00;;;;;19.56;37.08;101607.50;110181;1266;21489;-40
2023/05/28 02:02:13;;;;;;;;;13.67;12.67;;;;;19.48;37.04;101609.01;110260;1265;21152;-41
2023/05/28 02:04:40;;;;;;;;;15.00;14.00;;;;;19.38;37.04;101604.52;110287;1265;20737;-40
2023/05/28 02:07:08;;;;;;;;;15.00;12.33;;;;;19.47;36.99;101606.89;110269;1265;21377;-40
2023/05/28 02:09:35;;;;;;;;;16.00;15.00;;;;;19.57;36.75;101607.45;110234;1265;19955;-40
2023/05/28 02:12:03;;;;;;;;;15.50;14.00;;;;;19.49;36.72;101607.80;110221;1265;19466;-40
2023/05/28 02:14:31;;;;;;;;;13.50;12.50;;;;;19.25;36.91;101604.34;110190;1265;23109;-39
2023/05/28 02:16:58;;;;;;;;;13.00;12.00;;;;;19.41;36.92;101605.84;110175;1251;23074;-40
2023/05/28 02:19:26;;;;;;;;;15.50;14.00;;;;;19.38;36.75;101605.40;110206;1265;21923;-40
2023/05/28 02:21:53;;;;;;;;;13.67;12.00;;;;;19.44;36.77;101599.57;110218;1251;21547;-39
2023/05/28 02:24:21;;;;;;;;;13.00;12.00;;;;;19.47;36.72;101601.86;110159;1251;20110;-40
2023/05/28 02:26:48;;;;;;;;;15.00;12.50;;;;;19.38;36.69;101601.39;110173;1265;20782;-39
2023/05/28 02:29:16;;;;;;;;;13.00;12.00;;;;;19.39;36.74;101599.71;110152;1251;21598;-41
2023/05/28 02:31:43;;;;;;;;;12.00;12.00;;;;;19.37;36.58;101600.23;110158;1265;20837;-39
2023/05/28 02:34:11;;;;;;;;;15.50;14.00;;;;;19.34;36.64;101600.58;110209;1265;20655;-40
2023/05/28 02:36:39;;;;;;;;;12.00;12.00;;;;;19.20;36.74;101598.25;110176;1265;22274;-40
2023/05/28 02:39:07;;;;;;;;;12.00;12.00;;;;;19.28;36.60;101601.53;110179;1251;19944;-39
2023/05/28 02:41:34;;;;;;;;;13.00;12.00;;;;;18.91;37.10;101604.60;110191;1265;22040;-39
2023/05/28 02:44:02;;;;;;;;;13.00;12.50;;;;;18.91;37.20;101604.40;110192;1260;21966;-40
2023/05/28 02:46:29;;;;;;;;;13.00;12.00;;;;;18.90;37.16;101607.44;110172;1265;19935;-40
2023/05/28 02:48:57;;;;;;;;;13.00;12.00;;;;;19.02;37.02;101609.38;110166;1251;22112;-41
2023/05/28 02:51:24;;;;;;;;;16.00;13.00;;;;;19.08;36.70;101610.23;110140;1250;20129;-40
2023/05/28 02:53:52;;;;;;;;;12.00;12.00;;;;;19.10;36.70;101609.20;110168;1265;20268;-40
2023/05/28 02:56:20;;;;;;;;;10.00;10.00;;;;;19.16;36.62;101607.91;110145;1251;21000;-40
2023/05/28 02:58:48;;;;;;;;;12.00;12.00;;;;;19.11;36.58;101612.52;110196;1251;23474;-40
2023/05/28 03:01:15;;;;;;;;;12.00;12.00;;;;;19.05;36.72;101612.52;110154;1257;19950;-40
2023/05/28 03:03:43;;;;;;;;;10.00;10.00;;;;;19.03;36.79;101614.60;110065;1265;23314;-40
2023/05/28 03:06:10;;;;;;;;;13.00;10.00;;;;;19.16;36.59;101605.57;110071;1249;21514;-40
2023/05/28 03:08:38;;;;;;;;;13.00;12.00;;;;;19.23;36.50;101605.05;110087;1265;21128;-40
2023/05/28 03:11:05;;;;;;;;;15.00;10.00;;;;;18.95;36.79;101604.60;110066;1251;21172;-40
2023/05/28 03:13:33;;;;;;;;;14.50;12.00;;;;;19.05;36.75;101606.94;110131;1251;21578;-40
2023/05/28 03:16:00;;;;;;;;;14.67;14.00;;;;;19.10;36.67;101608.42;110167;1251;22520;-40
2023/05/28 03:18:28;;;;;;;;;10.00;10.00;;;;;19.08;36.77;101610.31;110257;1257;20502;-39
2023/05/28 03:20:55;;;;;;;;;11.00;11.00;;;;;18.86;37.05;101608.04;110234;1251;22652;-40
2023/05/28 03:23:22;;;;;;;;;12.50;12.00;;;;;18.84;37.05;101611.05;110178;1251;20210;-38
2023/05/28 03:25:50;;;;;;;;;;;;;;;19.00;36.95;101609.04;110167;1265;19489;-41
2023/05/28 03:28:17;;;;;;;;;14.00;11.00;;;;;19.14;36.56;101609.73;110254;1265;20311;-39
2023/05/28 03:30:45;;;;;;;;;12.00;11.00;;;;;19.14;36.71;101611.32;110189;1265;19219;-39
2023/05/28 03:33:12;;;;;;;;;12.33;12.00;;;;;18.89;36.97;101610.98;110178;1250;19415;-39
2023/05/28 03:35:40;;;;;;;;;12.00;10.00;;;;;18.89;36.77;101609.36;110246;1265;20099;-39
2023/05/28 03:38:07;;;;;;;;;10.00;10.00;;;;;18.78;36.80;101611.64;110184;1265;23029;-40
2023/05/28 03:40:34;;;;;;;;;12.00;10.00;;;;;18.85;36.82;101614.45;110178;1265;20836;-40
2023/05/28 03:43:02;;;;;;;;;12.00;12.00;;;;;18.81;37.00;101615.92;110192;1265;21476;-42
2023/05/28 03:45:29;;;;;;;;;14.00;12.00;;;;;18.95;36.69;101614.19;110208;1257;19963;-40
2023/05/28 03:47:57;;;;;;;;;12.00;12.00;;;;;18.93;36.69;101613.81;110212;1265;20700;-40
2023/05/28 03:50:24;;;;;;;;;13.00;12.00;;;;;18.87;36.67;101612.02;110217;1251;21586;-41
2023/05/28 03:52:52;;;;;;;;;12.00;9.00;;;;;18.67;36.98;101610.14;110183;1265;19302;-40
2023/05/28 03:55:19;;;;;;;;;13.50;12.00;;;;;18.79;36.86;101610.07;110198;1265;19745;-40
2023/05/28 03:57:47;;;;;;;;;13.00;13.00;;;;;18.60;36.85;101611.46;110188;1251;23695;-40
2023/05/28 04:00:14;;;;;;;;;15.00;14.00;;;;;18.69;36.77;101610.80;110285;1265;23089;-40
2023/05/28 04:02:42;;;;;;;;;13.00;11.50;;;;;18.79;36.74;101615.16;110160;1265;19440;-40
2023/05/28 04:05:10;;;;;;;;;14.00;12.00;;;;;18.92;36.62;101615.63;110226;1265;20385;-40
2023/05/28 04:07:37;;;;;;;;;11.33;11.33;;;;;18.99;36.39;101613.81;110233;1265;19101;-40
2023/05/28 04:10:04;;;;;;;;;15.00;13.00;;;;;18.99;36.52;101613.24;110189;1257;20395;-40
2023/05/28 04:12:32;;;;;;;;;12.00;12.00;;;;;18.95;36.48;101612.96;110200;1251;21564;-40
2023/05/28 04:15:00;;;;;;;;;15.00;12.00;;;;;18.68;36.63;101615.80;110231;1265;19225;-40
2023/05/28 04:17:28;;;;;;;;;12.00;12.00;;;;;18.52;37.22;101612.08;110303;1257;23115;-40
2023/05/28 04:19:55;;;;;;;;;14.00;12.00;;;;;18.46;37.28;101610.44;110222;1251;21562;-42
2023/05/28 04:22:23;;;;;;;;;14.50;13.00;;;;;18.31;37.49;101610.35;110177;1265;23476;-39
2023/05/28 04:24:55;;;;;;;;;12.00;12.00;;;;;18.56;37.41;101604.27;110236;1265;22926;-39
2023/05/28 04:27:23;;;;;;;;;14.00;12.00;;;;;18.59;37.34;101600.67;110247;1251;21734;-38
2023/05/28 04:29:52;;;;;;;;;13.00;11.00;;;;;18.65;37.22;101600.52;110238;1257;22939;-39
2023/05/28 04:32:19;;;;;;;;;14.00;12.00;;;;;18.79;37.23;101602.02;110269;1249;23079;-38
2023/05/28 04:34:47;;;;;;;;;10.00;10.00;;;;;18.92;37.09;101598.20;110241;1257;23103;-39
2023/05/28 04:37:15;;;;;;;;;13.00;13.00;;;;;18.88;37.08;101595.86;110258;1265;19884;-39
2023/05/28 04:39:42;;;;;;;;;12.00;12.00;;;;;18.72;37.25;101601.30;110274;1251;21574;-39
2023/05/28 04:42:13;;;;;;;;;11.50;10.50;;;;;18.79;37.34;101598.19;110223;1260;21907;-40
2023/05/28 04:44:41;;;;;;;;;10.00;10.00;;;;;18.78;37.39;101600.95;110169;1251;20072;-38
2023/05/28 04:47:08;;;;;;;;;18.00;16.00;;;;;18.69;37.57;101603.36;110231;1265;19457;-40
2023/05/28 04:49:35;;;;;;;;;15.00;12.00;;;;;18.73;37.50;101603.06;110219;1251;21468;-41
2023/05/28 04:52:03;;;;;;;;;17.00;15.00;;;;;18.70;37.60;101600.42;110184;1265;19110;-40
2023/05/28 04:54:30;;;;;;;;;11.00;11.00;;;;;18.58;37.93;101601.73;110176;1265;20789;-40
2023/05/28 04:56:58;;;;;;;;;12.00;10.00;;;;;18.83;37.62;101599.78;110184;1265;20334;-39
2023/05/28 04:59:25;;;;;;;;;14.00;11.00;;;;;19.03;37.25;101591.58;110177;1251;23056;-39
2023/05/28 05:01:53;;;;;;;;;9.00;9.00;;;;;19.07;37.29;101593.88;110200;1265;20677;-42
2023/05/28 05:04:20;;;;;;;;;14.00;14.00;;;;;18.98;37.52;101592.91;110224;1250;21944;-39
2023/05/28 05:06:47;;;;;;;;;12.00;12.00;;;;;18.90;37.61;101594.20;110209;1265;22487;-39
2023/05/28 05:09:15;;;;;;;;;12.50;11.00;;;;;19.00;37.54;101589.65;110169;1265;19577;-39
2023/05/28 05:11:42;;;;;;;;;14.00;12.00;;;;;18.87;37.59;101592.31;110234;1265;22982;-39
2023/05/28 05:14:10;;;;;;;;;15.00;14.00;;;;;18.80;38.18;101589.75;110206;1265;19941;-39
2023/05/28 05:16:37;;;;;;;;;12.00;10.00;;;;;18.87;37.98;101593.02;110188;1265;22984;-40
2023/05/28 05:19:05;;;;;;;;;15.00;13.00;;;;;18.96;38.07;101591.52;110189;1251;21545;-40
2023/05/28 05:21:32;;;;;;;;;17.00;14.00;;;;;18.95;38.17;101593.04;110207;1251;23584;-38
2023/05/28 05:24:00;;;;;;;;;14.00;12.00;;;;;18.80;38.45;101592.32;110173;1266;20801;-40
2023/05/28 05:26:27;;;;;;;;;15.00;13.00;;;;;18.91;38.13;101588.34;110196;1251;21599;-39
2023/05/28 05:28:54;;;;;;;;;15.00;14.00;;;;;19.00;38.10;101585.50;110173;1266;23131;-40
2023/05/28 05:31:22;;;;;;;;;15.00;15.00;;;;;18.88;38.05;101588.11;110222;1265;24362;-39
2023/05/28 05:33:49;;;;;;;;;13.00;12.00;;;;;18.89;38.04;101587.61;110225;1250;21461;-39
2023/05/28 05:36:17;;;;;;;;;12.00;12.00;;;;;18.92;38.12;101587.14;110201;1251;21796;-39
2023/05/28 05:38:45;;;;;;;;;12.00;10.00;;;;;18.95;38.17;101583.80;110164;1265;19555;-41
2023/05/28 05:41:13;;;;;;;;;15.00;12.00;;;;;19.10;38.00;101585.46;110199;1265;23620;-39
2023/05/28 05:43:40;;;;;;;;;13.50;13.50;;;;;19.17;37.91;101588.37;110165;1265;19300;-40
2023/05/28 05:46:08;;;;;;;;;14.00;14.00;;;;;19.11;38.33;101585.73;110160;1265;20769;-39
2023/05/28 05:48:35;;;;;;;;;13.00;12.00;;;;;18.94;38.37;101590.61;110175;1265;21427;-40
2023/05/28 05:51:02;;;;;;;;;17.00;17.00;;;;;18.86;38.69;101590.44;110218;1265;19262;-40
2023/05/28 05:53:30;;;;;;;;;12.00;12.00;;;;;19.10;38.24;101592.88;110185;1265;19433;-39
2023/05/28 05:55:57;;;;;;;;;18.00;16.50;;;;;19.14;38.07;101589.36;110192;1250;20320;-42
2023/05/28 05:58:25;;;;;;;;;15.00;12.00;;;;;19.14;38.32;101587.05;110140;1251;19990;-41
2023/05/28 06:00:53;;;;;;;;;18.00;17.00;;;;;19.06;38.39;101582.02;110190;1265;19837;-39
2023/05/28 06:03:21;;;;;;;;;13.00;12.00;;;;;19.23;38.20;101576.60;110236;1265;23452;-40
2023/05/28 06:05:48;;;;;;;;;13.00;13.00;;;;;19.28;38.00;101576.33;110185;1250;21308;-39
2023/05/28 06:08:16;;;;;;;;;13.00;12.00;;;;;19.24;38.06;101578.48;110185;1265;19475;-40
2023/05/28 06:10:43;;;;;;;;;13.00;10.00;;;;;19.19;37.82;101577.85;110166;1265;21478;-39
2023/05/28 06:13:11;;;;;;;;;15.00;15.00;;;;;19.26;37.98;101583.40;110195;1265;19056;-40
2023/05/28 06:15:38;;;;;;;;;18.00;16.00;;;;;19.27;37.80;101581.98;110212;1257;22977;-39
2023/05/28 06:18:06;;;;;;;;;15.67;13.67;;;;;19.31;37.85;101586.73;110179;1265;20161;-39
2023/05/28 06:20:33;;;;;;;;;12.00;11.00;;;;;19.30;37.68;101586.80;110157;1265;19204;-39
2023/05/28 06:23:01;;;;;;;;;15.00;13.00;;;;;19.44;37.58;101581.26;110249;1265;19745;-39
2023/05/28 06:25:29;;;;;;;;;16.00;15.00;;;;;19.54;37.59;101582.84;110134;1250;22980;-39
2023/05/28 06:27:56;;;;;;;;;10.00;10.00;;;;;19.66;37.68;101580.81;110181;1265;20100;-39
2023/05/28 06:30:24;;;;;;;;;10.00;10.00;;;;;19.70;37.70;101579.11;110238;1265;19415;-39
2023/05/28 06:32:51;;;;;;;;;11.00;9.00;;;;;19.76;37.74;101579.86;110192;1250;21925;-40
2023/05/28 06:35:19;;;;;;;;;11.00;9.50;;;;;19.84;37.55;101582.11;110224;1257;24639;-39
2023/05/28 06:37:46;;;;;;;;;12.00;9.00;;;;;19.94;37.57;101579.33;110176;1265;19436;-39
2023/05/28 06:40:14;;;;;;;;;10.00;9.00;;;;;19.97;37.51;101579.95;110159;1251;23055;-39
2023/05/28 06:42:42;;;;;;;;;6.00;6.00;;;;;19.95;37.42;101581.05;110257;1251;20052;-43
2023/05/28 06:45:09;;;;;;;;;9.50;9.00;;;;;19.97;37.43;101581.88;110248;1265;19722;-38
2023/05/28 06:47:36;;;;;;;;;8.00;8.00;;;;;20.03;37.23;101583.90;110196;1265;20268;-37
2023/05/28 06:50:04;;;;;;;;;8.33;7.00;;;;;20.05;37.26;101583.20;110165;1265;19278;-39
2023/05/28 06:52:31;;;;;;;;;7.00;6.00;;;;;19.98;36.93;101584.00;110252;1265;23583;-38
2023/05/28 06:54:59;;;;;;;;;7.00;6.00;;;;;19.98;36.84;101583.60;110254;1265;21736;-38
2023/05/28 06:57:26;;;;;;;;;4.00;4.00;;;;;20.01;36.55;101580.82;110182;1251;22753;-39
2023/05/28 06:59:54;;;;;;;;;6.00;6.00;;;;;20.03;36.29;101578.05;110200;1265;20757;-40
2023/05/28 07:02:21;;;;;;;;;9.00;6.00;;;;;20.05;36.13;101583.64;110179;1251;21487;-39
2023/05/28 07:04:49;;;;;;;;;7.00;6.00;;;;;20.01;35.72;101578.84;110229;1250;19943;-38
2023/05/28 07:07:16;;;;;;;;;7.00;7.00;;;;;20.00;35.60;101579.26;110150;1265;19670;-38
2023/05/28 07:09:44;;;;;;;;;6.00;6.00;;;;;20.02;35.42;101580.35;110262;1259;21866;-38
2023/05/28 07:12:11;;;;;;;;;6.00;4.00;;;;;19.99;35.10;101580.42;110248;1251;19637;-38
2023/05/28 07:14:38;;;;;;;;;5.00;4.00;;;;;19.92;34.89;101577.52;110284;1266;23110;-38
2023/05/28 07:17:06;;;;;;;;;5.00;4.00;;;;;19.95;34.61;101577.79;110245;1265;21489;-38
2023/05/28 07:19:33;;;;;;;;;6.00;4.00;;;;;20.01;34.52;101577.52;110254;1250;19630;-38
2023/05/28 07:22:01;;;;;;;;;6.00;4.00;;;;;20.00;34.14;101576.16;110255;1265;20672;-39
2023/05/28 07:24:28;;;;;;;;;6.00;6.00;;;;;20.04;34.03;101572.19;110228;1251;21709;-38
2023/05/28 07:26:56;;;;;;;;;4.00;4.00;;;;;20.15;33.79;101565.21;110243;1259;19553;-39
2023/05/28 07:29:23;;;;;;;;;7.00;4.00;;;;;20.24;34.03;101562.52;110187;1265;22171;-38
2023/05/28 07:31:51;;;;;;;;;6.00;4.00;;;;;20.29;33.99;101564.74;110176;1265;21663;-39
2023/05/28 07:34:18;;;;;;;;;4.00;4.00;;;;;20.19;33.98;101566.68;110154;1265;19398;-38
2023/05/28 07:36:46;;;;;;;;;6.00;6.00;;;;;20.19;33.62;101567.19;110214;1257;21042;-38
2023/05/28 07:39:13;;;;;;;;;4.00;4.00;;;;;20.10;33.37;101564.63;110186;1251;21798;-38
2023/05/28 07:41:40;;;;;;;;;4.00;4.00;;;;;20.21;33.24;101562.67;110269;1250;20872;-40
2023/05/28 07:44:08;;;;;;;;;7.00;6.00;;;;;20.27;33.08;101563.87;110214;1265;20789;-39
2023/05/28 07:46:35;;;;;;;;;6.50;5.00;;;;;20.36;32.81;101565.29;110183;1266;20145;-39
2023/05/28 07:49:03;;;;;;;;;4.00;4.00;;;;;20.44;32.59;101563.20;110202;1251;23382;-39
2023/05/28 07:51:31;;;;;;;;;6.00;4.00;;;;;20.55;32.54;101560.13;110222;1265;23598;-39
2023/05/28 07:53:58;;;;;;;;;4.00;4.00;;;;;20.50;32.38;101561.89;110206;1251;22983;-39
2023/05/28 07:56:26;;;;;;;;;2.00;2.00;;;;;20.54;32.17;101557.90;110181;1250;19862;-40
2023/05/28 07:58:54;;;;;;;;;4.00;4.00;;;;;20.64;32.08;101559.09;110225;1265;23173;-40
2023/05/28 08:01:21;;;;;;;;;4.00;4.00;;;;;20.47;32.04;101557.38;110243;1265;20430;-38
2023/05/28 08:03:51;;;;;;;;;4.00;4.00;;;;;20.41;32.08;101553.95;110251;1265;19477;-39
2023/05/28 08:06:18;;;;;;;;;5.00;4.00;;;;;20.47;32.07;101552.47;110249;1251;20758;-38
2023/05/28 08:08:46;;;;;;;;;4.00;4.00;;;;;20.58;31.84;101546.10;110204;1249;21699;-39
2023/05/28 08:11:14;;;;;;;;;2.00;2.00;;;;;20.68;31.81;101542.55;110167;1265;19276;-38
2023/05/28 08:13:41;;;;;;;;;4.00;4.00;;;;;20.71;31.77;101541.48;110220;1265;20688;-39
2023/05/28 08:16:09;;;;;;;;;2.00;2.00;;;;;20.69;31.68;101537.67;110235;1265;19995;-39
2023/05/28 08:18:38;;;;;;;;;2.00;2.00;;;;;20.76;31.93;101541.49;110220;1251;20153;-39
2023/05/28 08:21:07;;;;;;;;;4.00;4.00;;;;;20.64;32.03;101535.30;110285;1251;21125;-40
2023/05/28 08:23:34;;;;;;;;;4.50;4.00;;;;;20.61;31.76;101539.73;110214;1249;22029;-39
2023/05/28 08:26:02;;;;;;;;;2.00;2.00;;;;;20.47;31.70;101538.11;110186;1251;20226;-39
2023/05/28 08:28:30;;;;;;;;;4.00;4.00;;;;;20.48;31.93;101534.70;110243;1250;21023;-39
2023/05/28 08:30:57;;;;;;;;;4.00;4.00;;;;;20.52;31.87;101535.20;110218;1251;21513;-39
2023/05/28 08:33:24;;;;;;;;;3.00;2.50;;;;;20.59;31.82;101532.86;110164;1251;20563;-40
2023/05/28 08:35:52;;;;;;;;;3.50;3.50;;;;;20.74;31.49;101528.48;110227;1249;23554;-39
2023/05/28 08:38:19;;;;;;;;;4.00;4.00;;;;;20.89;31.51;101525.11;110194;1265;20129;-39
2023/05/28 08:40:47;;;;;;;;;4.00;4.00;;;;;20.96;31.57;101519.09;110227;1257;19593;-40
2023/05/28 08:43:14;;;;;;;;;5.00;5.00;;;;;21.06;31.93;101512.77;110024;1253;21979;-40
2023/05/28 08:45:42;;;;;;;;;4.00;4.00;;;;;21.18;32.12;101514.44;110242;1265;20345;-39
2023/05/28 08:48:09;;;;;;;;;2.00;2.00;;;;;21.30;32.28;101519.52;110273;1249;23560;-39
2023/05/28 08:50:37;;;;;;;;;11.00;10.00;;;;;21.31;31.87;101511.23;110238;1251;19569;-40
2023/05/28 08:53:04;;;;;;;;;8.00;8.00;;;;;21.25;32.19;101510.19;110229;1265;20137;-39
2023/05/28 08:55:32;;;;;;;;;15.00;15.00;;;;;21.19;32.41;101508.45;110245;1265;23369;-40
2023/05/28 08:57:59;;;;;;;;;7.00;7.00;;;;;21.16;32.62;101502.08;110237;1265;23653;-39
2023/05/28 09:00:27;;;;;;;;;5.50;4.50;;;;;21.23;32.40;101500.46;110206;1251;23487;-38
2023/05/28 09:02:54;;;;;;;;;5.00;5.00;;;;;21.13;32.40;101499.89;110222;1265;23183;-38
2023/05/28 09:05:22;;;;;;;;;4.00;4.00;;;;;21.05;32.65;101498.79;110243;1265;20695;-38
2023/05/28 09:07:50;;;;;;;;;7.50;7.00;;;;;21.06;32.75;101494.56;110235;1265;21350;-38
2023/05/28 09:10:17;;;;;;;;;5.00;4.67;;;;;21.10;32.72;101497.95;110234;1266;19159;-41
2023/05/28 09:12:44;;;;;;;;;10.00;8.00;;;;;21.15;32.46;101489.24;110266;1257;19717;-38
2023/05/28 09:15:12;;;;;;;;;4.00;4.00;;;;;21.10;32.07;101492.17;110234;1259;21907;-38
2023/05/28 09:17:40;;;;;;;;;4.00;4.00;;;;;20.91;31.71;101488.48;110255;1249;19258;-39
2023/05/28 09:20:07;;;;;;;;;5.00;4.00;;;;;20.83;31.65;101479.97;110261;1251;20764;-39
2023/05/28 09:22:35;;;;;;;;;5.00;4.00;;;;;20.88;31.36;101484.16;110221;1265;22914;-41
2023/05/28 09:25:04;;;;;;;;;4.00;4.00;;;;;20.93;31.25;101481.23;110080;1250;23256;-39
2023/05/28 09:27:32;;;;;;;;;4.00;4.00;;;;;20.93;30.83;101479.73;110231;1265;23505;-39
2023/05/28 09:30:01;;;;;;;;;5.00;4.00;;;;;20.92;30.58;101481.87;110223;1265;20052;-39
2023/05/28 09:32:28;;;;;;;;;4.00;4.00;;;;;20.91;30.66;101474.16;110224;1249;19637;-39
2023/05/28 09:34:55;;;;;;;;;2.00;2.00;;;;;20.83;30.30;101476.67;110216;1265;19480;-41
2023/05/28 09:37:23;;;;;;;;;4.00;4.00;;;;;20.74;30.22;101470.33;110235;1265;20276;-39
2023/05/28 09:39:53;;;;;;;;;2.00;2.00;;;;;20.83;30.16;101469.14;110224;1250;19981;-39
2023/05/28 09:42:20;;;;;;;;;5.00;4.00;;;;;20.99;30.28;101464.06;110287;1265;23035;-39
2023/05/28 09:44:48;;;;;;;;;8.00;8.00;;;;;20.98;30.34;101458.10;110219;1265;21489;-37
2023/05/28 09:47:16;;;;;;;;;8.50;7.00;;;;;21.14;30.52;101450.17;110232;1265;23547;-38
2023/05/28 09:49:43;;;;;;;;;7.00;7.00;;;;;21.22;30.57;101447.13;110260;1265;19373;-39
2023/05/28 09:52:11;;;;;;;;;7.00;7.00;;;;;21.27;30.68;101448.79;110208;1251;21674;-38
2023/05/28 09:54:38;;;;;;;;;5.00;5.00;;;;;21.24;30.94;101445.20;110218;1251;19639;-39
2023/05/28 09:57:05;;;;;;;;;5.00;5.00;;;;;21.30;30.83;101445.35;110178;1265;20583;-39
2023/05/28 09:59:33;;;;;;;;;7.00;5.00;;;;;21.25;30.83;101444.96;110234;1265;20105;-39
2023/05/28 10:02:01;;;;;;;;;7.00;5.00;;;;;21.21;30.56;101439.23;110240;1257;19706;-39
2023/05/28 10:04:28;;;;;;;;;4.00;4.00;;;;;21.21;30.73;101443.36;110254;1265;20979;-39
2023/05/28 10:06:56;;;;;;;;;4.50;4.50;;;;;21.18;30.76;101442.99;110254;1260;21434;-39
2023/05/28 10:09:23;;;;;;;;;9.00;8.00;;;;;21.17;30.84;101440.95;110110;1265;22933;-38
2023/05/28 10:11:51;;;;;;;;;7.50;7.00;;;;;21.21;30.90;101442.29;110171;1265;19374;-40
2023/05/28 10:14:18;;;;;;;;;5.00;5.00;;;;;21.26;30.92;101442.84;110253;1251;21558;-38
2023/05/28 10:16:46;;;;;;;;;4.00;4.00;;;;;21.29;30.73;101438.89;110220;1266;19311;-39
2023/05/28 10:19:13;;;;;;;;;5.00;4.00;;;;;21.24;30.84;101446.55;110281;1265;19377;-38
2023/05/28 10:21:40;;;;;;;;;4.00;4.00;;;;;21.06;31.03;101444.63;110265;1251;22739;-39
2023/05/28 10:24:08;;;;;;;;;3.33;3.33;;;;;21.05;31.02;101439.10;110242;1265;19573;-38
2023/05/28 10:26:35;;;;;;;;;4.00;4.00;;;;;21.05;30.88;101434.67;110259;1265;20733;-39
2023/05/28 10:29:03;;;;;;;;;4.00;4.00;;;;;21.04;30.89;101432.98;110273;1250;21464;-37
2023/05/28 10:31:30;;;;;;;;;5.00;5.00;;;;;21.17;30.97;101429.98;110251;1251;23084;-39
2023/05/28 10:33:58;;;;;;;;;4.50;4.00;;;;;21.12;30.98;101427.07;110253;1265;19466;-38
2023/05/28 10:36:25;;;;;;;;;5.00;5.00;;;;;21.07;31.03;101428.69;110252;1251;22220;-40
2023/05/28 10:38:53;;;;;;;;;7.50;7.00;;;;;21.12;31.03;101424.74;110280;1265;19252;-39
2023/05/28 10:41:21;;;;;;;;;4.00;4.00;;;;;21.19;31.16;101419.77;110280;1265;20738;-39
2023/05/28 10:43:48;;;;;;;;;4.00;4.00;;;;;21.34;31.18;101411.14;110238;1250;22859;-39
2023/05/28 10:46:16;;;;;;;;;4.00;4.00;;;;;21.44;31.36;101408.63;110221;1257;20021;-39
2023/05/28 10:48:43;;;;;;;;;2.00;2.00;;;;;21.41;31.38;101406.70;110244;1265;19351;-39
2023/05/28 10:51:12;;;;;;;;;4.00;4.00;;;;;21.35;31.42;101407.16;110161;1251;21690;-39
2023/05/28 10:53:39;;;;;;;;;4.00;4.00;;;;;21.28;31.42;101410.90;110188;1265;19160;-39
2023/05/28 10:56:07;;;;;;;;;5.00;4.00;;;;;21.25;31.55;101414.73;110208;1265;24329;-39
2023/05/28 10:58:34;;;;;;;;;5.00;4.00;;;;;21.28;31.47;101413.95;110264;1257;21296;-38
2023/05/28 11:01:03;;;;;;;;;3.00;3.00;;;;;21.22;31.33;101416.80;110258;1250;19594;-39
2023/05/28 11:03:30;;;;;;;;;4.33;4.00;;;;;21.23;31.14;101415.41;110263;1257;20389;-39
2023/05/28 11:05:57;;;;;;;;;4.00;4.00;;;;;21.24;31.33;101409.45;110257;1266;21684;-39
2023/05/28 11:08:25;;;;;;;;;5.00;5.00;;;;;21.24;31.20;101408.39;110244;1259;19066;-40
2023/05/28 11:10:52;;;;;;;;;5.00;5.00;;;;;21.27;31.52;101405.34;110295;1249;20693;-39